Impacts TAF Board
For situational awareness. Not to be used for flight planning purposes.
IDs:

KSTL - St Louis/Lambert Int, MO, US

Issued at 2320 UTC 21 Sep 2021
Updated at 2330 UTC 21 Sep 2021
Potential Impact None Slight Moderate High
Time2251Z 22/00Z 22/01Z 22/02Z 22/03Z 22/04Z 22/05Z 22/06Z 22/07Z 22/08Z 22/09Z 22/10Z 22/11Z 22/12Z>>
Type OBS PRVL PRVL PRVL PRVL PRVL PRVL PRVL PRVL PRVL PRVL PRVL PRVL PRVL
VIS 10 >6 >6 >6 >6 >6 >6 >6 >6 >6 >6 >6 >6 >6
CIG 130 120 120 120 120 120 120 120 120 120 120 120 120 120
Cover BKN BKN BKN BKN BKN BKN BKN BKN BKN BKN BKN BKN BKN BKN
FltCat VFR VFR VFR VFR VFR VFR VFR VFR VFR VFR VFR VFR VFR VFR
WX -- -- -- -- -- -- -- -- -- -- -- -- -- --
WDir 330 340 340 340 340 340 340 340 340 340 340 340 340 340
WSpd 14 11 11 11 11 11 11 11 11 11 11 11 11 11
WGst -- -- -- -- -- -- -- -- -- -- -- -- -- --
Raw TAF
KSTL 212320Z 2200/2306 34011KT P6SM SCT040 BKN120
  FM221400 33010G17KT P6SM SCT050
  FM230000 32005KT P6SM FEW050


Raw METAR
KSTL 212251Z 33014KT 10SM FEW035 SCT047 BKN130 BKN250 20/12 A3013 RMK AO2 SLP193 T02000122 $
KSTL 212151Z 31010KT 10SM SCT027 BKN035 BKN043 OVC150 20/14 A3013 RMK AO2 RAB00E31B41E48 SLP194 P0000 T02000144 $
KSTL 212140Z 31008KT 10SM SCT027 BKN035 BKN043 20/14 A3012 RMK AO2 RAB00E31 P0000 T02000139 $
KSTL 212107Z 30009KT 10SM -RA BKN024 OVC037 19/14 A3013 RMK AO2 RAB00 P0000 T01940139 $
KSTL 212051Z 32010KT 10SM FEW024 BKN037 OVC090 20/14 A3013 RMK AO2 SLP195 60000 T02000139 53000 $

METAR Board
Radar Display
Forecast Discussion
For situational awareness. Not to be used for flight planning purposes.